Time;durP1;ratioP1;P1;durP2;ratioP2;P2;SDS_P1;SDS_P2;PMS_P1;PMS_P2;Temp;Humidity;BMP_temperature;BMP_pressure;BME280_temperature;BME280_humidity;BME280_pressure;Samples;Min_cycle;Max_cycle;Signal;HPM_P1;HPM_P2
2022/08/17 00:00:35;;;;;;;1999.90;999.90;;;;;;;;;;4966119;28;20203;-66
2022/08/17 00:03:21;;;;;;;1999.90;999.90;;;;;;;;;;4979447;28;20778;-66
2022/08/17 00:06:10;;;;;;;1999.90;999.90;;;;;;;;;;4971736;28;20308;-66
2022/08/17 00:08:58;;;;;;;1999.90;999.90;;;;;;;;;;4979578;28;20231;-66
2022/08/17 00:11:44;;;;;;;1999.90;999.90;;;;;;;;;;4987527;28;20394;-66
2022/08/17 00:14:29;;;;;;;1999.90;999.90;;;;;;;;;;4984149;28;20227;-67
2022/08/17 00:17:14;;;;;;;1999.90;999.90;;;;;;;;;;4983855;28;20582;-65
2022/08/17 00:19:59;;;;;;;1999.90;999.90;;;;;;;;;;4982635;28;20760;-66
2022/08/17 00:22:44;;;;;;;1999.90;999.90;;;;;;;;;;4990101;28;20553;-66
2022/08/17 00:25:31;;;;;;;1999.90;999.90;;;;;;;;;;4988559;28;20211;-67
2022/08/17 00:28:16;;;;;;;1999.90;999.90;;;;;;;;;;4983122;28;20235;-66
2022/08/17 00:31:01;;;;;;;1999.90;999.90;;;;;;;;;;4982456;28;20347;-66
2022/08/17 00:33:46;;;;;;;1999.90;999.90;;;;;;;;;;4978805;28;20216;-66
2022/08/17 00:36:31;;;;;;;1999.90;999.90;;;;;;;;;;4983658;28;20212;-66
2022/08/17 00:39:16;;;;;;;1999.90;999.90;;;;;;;;;;4982013;28;20247;-66
2022/08/17 00:42:11;;;;;;;1999.90;999.90;;;;;;;;;;4987063;28;20211;-67
2022/08/17 00:44:56;;;;;;;1999.90;999.90;;;;;;;;;;4986356;28;20805;-67
2022/08/17 00:47:41;;;;;;;1999.90;999.90;;;;;;;;;;4986015;28;20250;-66
2022/08/17 00:50:26;;;;;;;1999.90;999.90;;;;;;;;;;4981672;28;20303;-67
2022/08/17 00:53:12;;;;;;;1999.90;999.90;;;;;;;;;;4994959;28;20215;-67
2022/08/17 00:55:58;;;;;;;1999.90;999.90;;;;;;;;;;4985597;28;20251;-67
2022/08/17 00:58:44;;;;;;;1999.90;999.90;;;;;;;;;;4981494;28;20243;-66
2022/08/17 01:01:29;;;;;;;1999.90;999.90;;;;;;;;;;4982003;28;20587;-67
2022/08/17 01:04:15;;;;;;;1999.90;999.90;;;;;;;;;;4980988;28;20251;-66
2022/08/17 01:07:01;;;;;;;1999.90;999.90;;;;;;;;;;4984307;28;20298;-66
2022/08/17 01:09:46;;;;;;;1999.90;999.90;;;;;;;;;;4994823;28;20413;-67
2022/08/17 01:12:33;;;;;;;1999.90;999.90;;;;;;;;;;4990735;28;20617;-67
2022/08/17 01:15:20;;;;;;;1999.90;999.90;;;;;;;;;;4978088;28;20215;-66
2022/08/17 01:18:08;;;;;;;1999.90;999.90;;;;;;;;;;4986104;28;20733;-67
2022/08/17 01:20:54;;;;;;;1999.90;999.90;;;;;;;;;;4994512;28;20771;-66
2022/08/17 01:23:42;;;;;;;1999.90;999.90;;;;;;;;;;4990507;28;20977;-66
2022/08/17 01:26:27;;;;;;;1999.90;999.90;;;;;;;;;;4976171;28;20319;-67
2022/08/17 01:29:12;;;;;;;1999.90;999.90;;;;;;;;;;4989746;28;20247;-67
2022/08/17 01:31:59;;;;;;;1999.90;999.90;;;;;;;;;;4984047;28;20259;-67
2022/08/17 01:34:44;;;;;;;1999.90;999.90;;;;;;;;;;4980385;28;20224;-67
2022/08/17 01:37:30;;;;;;;1999.90;999.90;;;;;;;;;;4982549;28;20355;-67
2022/08/17 01:40:19;;;;;;;1999.90;999.90;;;;;;;;;;4980992;28;20211;-66
2022/08/17 01:43:07;;;;;;;1999.90;999.90;;;;;;;;;;4982620;28;20259;-67
2022/08/17 01:45:55;;;;;;;1999.90;999.90;;;;;;;;;;4993774;28;20214;-66
2022/08/17 01:48:41;;;;;;;1999.90;999.90;;;;;;;;;;4983048;28;20239;-67
2022/08/17 01:51:29;;;;;;;1999.90;999.90;;;;;;;;;;4954971;29;20220;-67
2022/08/17 01:54:16;;;;;;;1999.90;999.90;;;;;;;;;;4954987;29;20220;-65
2022/08/17 01:57:02;;;;;;;1999.90;999.90;;;;;;;;;;4983347;28;20215;-67
2022/08/17 01:59:47;;;;;;;1999.90;999.90;;;;;;;;;;4984060;28;20574;-66
2022/08/17 02:02:32;;;;;;;1999.90;999.90;;;;;;;;;;4975409;28;20215;-67
2022/08/17 02:05:17;;;;;;;1999.90;999.90;;;;;;;;;;4978128;28;20271;-65
2022/08/17 02:08:03;;;;;;;1999.90;999.90;;;;;;;;;;4974161;28;20265;-67
2022/08/17 02:10:50;;;;;;;1999.90;999.90;;;;;;;;;;4985319;28;20215;-67
2022/08/17 02:13:37;;;;;;;1999.90;999.90;;;;;;;;;;4987077;28;20260;-67
2022/08/17 02:16:21;;;;;;;1999.90;999.90;;;;;;;;;;4981709;28;20344;-67
2022/08/17 02:19:08;;;;;;;1999.90;999.90;;;;;;;;;;4973968;28;20311;-67
2022/08/17 02:21:53;;;;;;;1999.90;999.90;;;;;;;;;;4972310;28;20434;-66
2022/08/17 02:24:39;;;;;;;1999.90;999.90;;;;;;;;;;4973670;28;20211;-66
2022/08/17 02:27:24;;;;;;;1999.90;999.90;;;;;;;;;;4980517;28;20218;-65
2022/08/17 02:30:11;;;;;;;1999.90;999.90;;;;;;;;;;4983010;28;20299;-67
2022/08/17 02:32:57;;;;;;;1999.90;999.90;;;;;;;;;;4978061;28;20227;-66
2022/08/17 02:35:42;;;;;;;1999.90;999.90;;;;;;;;;;4977138;28;20207;-66
2022/08/17 02:38:27;;;;;;;1999.90;999.90;;;;;;;;;;4979564;28;20236;-66
2022/08/17 02:41:12;;;;;;;1999.90;999.90;;;;;;;;;;4983624;28;20232;-66
2022/08/17 02:43:57;;;;;;;1999.90;999.90;;;;;;;;;;4983423;28;20215;-66
2022/08/17 02:46:44;;;;;;;1999.90;999.90;;;;;;;;;;4986045;28;20691;-66
2022/08/17 02:49:29;;;;;;;1999.90;999.90;;;;;;;;;;4974956;28;20242;-67
2022/08/17 02:52:13;;;;;;;1999.90;999.90;;;;;;;;;;4980781;28;20269;-67
2022/08/17 02:54:58;;;;;;;1999.90;999.90;;;;;;;;;;4989222;28;20238;-66
2022/08/17 02:57:45;;;;;;;1999.90;999.90;;;;;;;;;;4975908;28;21076;-67
2022/08/17 03:00:32;;;;;;;1999.90;999.90;;;;;;;;;;4981084;28;20218;-66
2022/08/17 03:03:18;;;;;;;1999.90;999.90;;;;;;;;;;4974382;28;20324;-67
2022/08/17 03:06:04;;;;;;;1999.90;999.90;;;;;;;;;;4984268;28;20297;-67
2022/08/17 03:08:49;;;;;;;1999.90;999.90;;;;;;;;;;4982943;28;20608;-66
2022/08/17 03:11:34;;;;;;;1999.90;999.90;;;;;;;;;;4973311;28;20267;-66
2022/08/17 03:14:19;;;;;;;1999.90;999.90;;;;;;;;;;4976859;28;20212;-65
2022/08/17 03:17:04;;;;;;;1999.90;999.90;;;;;;;;;;4989498;28;20576;-67
2022/08/17 03:19:52;;;;;;;1999.90;999.90;;;;;;;;;;4982992;28;20409;-67
2022/08/17 03:22:38;;;;;;;1999.90;999.90;;;;;;;;;;4983045;28;20838;-66
2022/08/17 03:25:24;;;;;;;1999.90;999.90;;;;;;;;;;4966081;28;20215;-66
2022/08/17 03:28:10;;;;;;;1999.90;999.90;;;;;;;;;;4981656;28;20232;-66
2022/08/17 03:30:55;;;;;;;1999.90;999.90;;;;;;;;;;4977100;28;20219;-66
2022/08/17 03:33:40;;;;;;;1999.90;999.90;;;;;;;;;;4983353;28;20218;-66
2022/08/17 03:36:26;;;;;;;1999.90;999.90;;;;;;;;;;4977160;28;20343;-66
2022/08/17 03:39:11;;;;;;;1999.90;999.90;;;;;;;;;;4986504;28;20242;-66
2022/08/17 03:42:01;;;;;;;1999.90;999.90;;;;;;;;;;4984244;28;20211;-66
2022/08/17 03:44:48;;;;;;;1999.90;999.90;;;;;;;;;;4985628;28;20698;-66
2022/08/17 03:56:55;;;;;;;1999.90;999.90;;;;;;;;;;4978091;28;20472;-67
2022/08/17 03:59:40;;;;;;;1999.90;999.90;;;;;;;;;;4979290;28;20215;-67
2022/08/17 04:02:27;;;;;;;1999.90;999.90;;;;;;;;;;4982021;28;20217;-67
2022/08/17 04:05:13;;;;;;;1999.90;999.90;;;;;;;;;;4990862;28;20210;-67
2022/08/17 04:07:59;;;;;;;1999.90;999.90;;;;;;;;;;4975226;28;20387;-66
2022/08/17 04:10:45;;;;;;;1999.90;999.90;;;;;;;;;;4972115;28;20692;-66
2022/08/17 04:13:30;;;;;;;1999.90;999.90;;;;;;;;;;4973998;28;20231;-66
2022/08/17 04:16:15;;;;;;;1999.90;999.90;;;;;;;;;;4975519;28;20255;-67
2022/08/17 04:19:00;;;;;;;1999.90;999.90;;;;;;;;;;4972569;28;20430;-67
2022/08/17 04:21:45;;;;;;;1999.90;999.90;;;;;;;;;;4975484;28;20204;-67
2022/08/17 04:24:30;;;;;;;1999.90;999.90;;;;;;;;;;4974941;28;20291;-68
2022/08/17 04:27:16;;;;;;;1999.90;999.90;;;;;;;;;;4977835;28;20698;-67
2022/08/17 04:30:01;;;;;;;1999.90;999.90;;;;;;;;;;4975296;28;20581;-67
2022/08/17 04:32:50;;;;;;;1999.90;999.90;;;;;;;;;;4975047;28;20220;-67
2022/08/17 04:35:37;;;;;;;1999.90;999.90;;;;;;;;;;4989768;28;20211;-66
2022/08/17 04:38:23;;;;;;;1999.90;999.90;;;;;;;;;;4986884;28;20366;-66
2022/08/17 04:44:12;;;;;;;1999.90;999.90;;;;;;;;;;4974937;28;20718;-67
2022/08/17 04:46:57;;;;;;;1999.90;999.90;;;;;;;;;;4975005;28;20701;-66
2022/08/17 04:49:42;;;;;;;1999.90;999.90;;;;;;;;;;4974749;28;20942;-67
2022/08/17 04:52:27;;;;;;;1999.90;999.90;;;;;;;;;;4974860;28;20250;-66
2022/08/17 04:55:12;;;;;;;1999.90;999.90;;;;;;;;;;4974208;28;20918;-67
2022/08/17 04:57:57;;;;;;;1999.90;999.90;;;;;;;;;;4982525;28;20367;-67
2022/08/17 05:00:43;;;;;;;1999.90;999.90;;;;;;;;;;4984625;28;20207;-67
2022/08/17 05:03:29;;;;;;;1999.90;999.90;;;;;;;;;;4992649;28;20339;-66
2022/08/17 05:06:14;;;;;;;1999.90;999.90;;;;;;;;;;4992637;28;20214;-66
2022/08/17 05:08:59;;;;;;;1999.90;999.90;;;;;;;;;;4972022;28;20768;-67
2022/08/17 05:11:44;;;;;;;1999.90;999.90;;;;;;;;;;4974245;28;20219;-67
2022/08/17 05:14:29;;;;;;;1999.90;999.90;;;;;;;;;;4986874;28;20263;-67
2022/08/17 05:17:16;;;;;;;1999.90;999.90;;;;;;;;;;4971784;28;20927;-67
2022/08/17 05:20:01;;;;;;;1999.90;999.90;;;;;;;;;;4981350;28;20223;-66
2022/08/17 05:22:48;;;;;;;1999.90;999.90;;;;;;;;;;4975007;28;20226;-67
2022/08/17 05:25:35;;;;;;;1999.90;999.90;;;;;;;;;;4979189;28;20237;-66
2022/08/17 05:28:20;;;;;;;1999.90;999.90;;;;;;;;;;4979297;28;20234;-67
2022/08/17 05:31:05;;;;;;;1999.90;999.90;;;;;;;;;;4994240;28;20215;-66
2022/08/17 05:33:53;;;;;;;1999.90;999.90;;;;;;;;;;4990080;28;20711;-66
2022/08/17 05:36:39;;;;;;;1999.90;999.90;;;;;;;;;;4979988;28;20214;-67
2022/08/17 05:39:24;;;;;;;1999.90;999.90;;;;;;;;;;4955544;29;20303;-67
2022/08/17 05:42:09;;;;;;;1999.90;999.90;;;;;;;;;;4955520;29;20212;-67
2022/08/17 05:44:56;;;;;;;1999.90;999.90;;;;;;;;;;4979096;28;20216;-66
2022/08/17 05:47:42;;;;;;;1999.90;999.90;;;;;;;;;;4993905;28;20301;-67
2022/08/17 05:50:31;;;;;;;1999.90;999.90;;;;;;;;;;4994007;28;20247;-67
2022/08/17 05:53:21;;;;;;;1999.90;999.90;;;;;;;;;;4993698;28;20442;-67
2022/08/17 05:56:11;;;;;;;1999.90;999.90;;;;;;;;;;4986206;28;20211;-66
2022/08/17 05:59:02;;;;;;;1999.90;999.90;;;;;;;;;;4985630;28;20233;-66
2022/08/17 06:01:52;;;;;;;1999.90;999.90;;;;;;;;;;4984019;28;20218;-67
2022/08/17 06:04:47;;;;;;;1999.90;999.90;;;;;;;;;;4978200;28;20575;-67
2022/08/17 06:07:37;;;;;;;1999.90;999.90;;;;;;;;;;4979785;28;20231;-66
2022/08/17 06:10:26;;;;;;;1999.90;999.90;;;;;;;;;;4969481;28;20708;-66
2022/08/17 06:13:15;;;;;;;1999.90;999.90;;;;;;;;;;4976367;28;20776;-66
2022/08/17 06:16:02;;;;;;;1999.90;999.90;;;;;;;;;;4982011;28;21025;-66
2022/08/17 06:18:48;;;;;;;1999.90;999.90;;;;;;;;;;4981670;28;20295;-67
2022/08/17 06:21:35;;;;;;;1999.90;999.90;;;;;;;;;;4979604;28;20214;-65
2022/08/17 06:24:26;;;;;;;1999.90;999.90;;;;;;;;;;4973565;28;20319;-65
2022/08/17 06:27:13;;;;;;;1999.90;999.90;;;;;;;;;;4985020;28;20208;-66
2022/08/17 06:30:00;;;;;;;1999.90;999.90;;;;;;;;;;4988611;28;20327;-66
2022/08/17 06:32:47;;;;;;;1999.90;999.90;;;;;;;;;;4972911;28;20307;-66
2022/08/17 06:35:34;;;;;;;1999.90;999.90;;;;;;;;;;4973251;28;20258;-66
2022/08/17 06:38:23;;;;;;;1999.90;999.90;;;;;;;;;;4972591;28;20242;-66
2022/08/17 06:41:15;;;;;;;1999.90;999.90;;;;;;;;;;4983817;28;20225;-66
2022/08/17 06:44:09;;;;;;;1999.90;999.90;;;;;;;;;;4972717;28;20207;-65
2022/08/17 06:46:57;;;;;;;1999.90;999.90;;;;;;;;;;4972889;28;20746;-66
2022/08/17 06:49:44;;;;;;;1999.90;999.90;;;;;;;;;;4972835;28;20223;-65
2022/08/17 06:52:33;;;;;;;1999.90;999.90;;;;;;;;;;4971440;28;20219;-66
2022/08/17 06:55:20;;;;;;;1999.90;999.90;;;;;;;;;;4980109;28;20732;-66
2022/08/17 06:58:07;;;;;;;1999.90;999.90;;;;;;;;;;4991150;28;20227;-66
2022/08/17 07:00:57;;;;;;;1999.90;999.90;;;;;;;;;;4977601;28;20223;-66
2022/08/17 07:03:46;;;;;;;1999.90;999.90;;;;;;;;;;4973304;28;20273;-66
2022/08/17 07:06:34;;;;;;;1999.90;999.90;;;;;;;;;;4972615;28;20216;-67
2022/08/17 07:09:22;;;;;;;1999.90;999.90;;;;;;;;;;4972178;28;20243;-67
2022/08/17 07:12:10;;;;;;;1999.90;999.90;;;;;;;;;;4978715;28;20714;-65
2022/08/17 07:15:02;;;;;;;1999.90;999.90;;;;;;;;;;4989546;28;20328;-66
2022/08/17 07:17:47;;;;;;;1999.90;999.90;;;;;;;;;;4971330;28;20227;-66
2022/08/17 07:20:33;;;;;;;1999.90;999.90;;;;;;;;;;4972499;28;20678;-65
2022/08/17 07:23:20;;;;;;;1999.90;999.90;;;;;;;;;;4972554;28;20576;-66
2022/08/17 07:26:06;;;;;;;1999.90;999.90;;;;;;;;;;4972179;28;20706;-66
2022/08/17 07:28:51;;;;;;;1999.90;999.90;;;;;;;;;;4973548;28;20232;-65
2022/08/17 07:31:37;;;;;;;1999.90;999.90;;;;;;;;;;4970722;28;20231;-66
2022/08/17 07:34:22;;;;;;;1999.90;999.90;;;;;;;;;;4987170;28;20321;-66
2022/08/17 07:37:07;;;;;;;1999.90;999.90;;;;;;;;;;4994234;28;20211;-66
2022/08/17 07:39:55;;;;;;;1999.90;999.90;;;;;;;;;;4989828;28;20202;-66
2022/08/17 07:42:40;;;;;;;1999.90;999.90;;;;;;;;;;4980126;28;20274;-66
2022/08/17 07:48:29;;;;;;;1999.90;999.90;;;;;;;;;;4978752;28;20227;-65
2022/08/17 07:51:15;;;;;;;1999.90;999.90;;;;;;;;;;4975438;28;20211;-65
2022/08/17 07:54:01;;;;;;;1999.90;999.90;;;;;;;;;;4977354;28;20223;-66
2022/08/17 07:56:48;;;;;;;1999.90;999.90;;;;;;;;;;4975883;28;20220;-67
2022/08/17 07:59:34;;;;;;;1999.90;999.90;;;;;;;;;;4975455;28;20239;-66
2022/08/17 08:02:25;;;;;;;1999.90;999.90;;;;;;;;;;4978535;28;20258;-65
2022/08/17 08:05:12;;;;;;;1999.90;999.90;;;;;;;;;;4977415;28;20208;-65
2022/08/17 08:07:58;;;;;;;1999.90;999.90;;;;;;;;;;4975520;28;20248;-66
2022/08/17 08:10:43;;;;;;;1999.90;999.90;;;;;;;;;;4974862;28;20779;-67
2022/08/17 08:13:29;;;;;;;1999.90;999.90;;;;;;;;;;4975480;28;20219;-65
2022/08/17 08:16:27;;;;;;;1999.90;999.90;;;;;;;;;;4975619;28;20780;-66
2022/08/17 08:19:15;;;;;;;1999.90;999.90;;;;;;;;;;4982975;28;20310;-65
2022/08/17 08:22:04;;;;;;;1999.90;999.90;;;;;;;;;;4977134;28;20221;-64
2022/08/17 08:24:56;;;;;;;1999.90;999.90;;;;;;;;;;4978197;28;20702;-65
2022/08/17 08:27:47;;;;;;;1999.90;999.90;;;;;;;;;;4979649;28;20231;-65
2022/08/17 08:30:34;;;;;;;1999.90;999.90;;;;;;;;;;4983606;28;20213;-66
2022/08/17 08:33:28;;;;;;;1999.90;999.90;;;;;;;;;;4987968;28;20225;-66
2022/08/17 08:36:23;;;;;;;1999.90;999.90;;;;;;;;;;4983567;28;20206;-65
2022/08/17 08:39:15;;;;;;;1999.90;999.90;;;;;;;;;;4975418;28;20236;-65
2022/08/17 08:42:06;;;;;;;1999.90;999.90;;;;;;;;;;4983688;28;20219;-64
2022/08/17 08:44:55;;;;;;;1999.90;999.90;;;;;;;;;;4981371;28;20210;-64
2022/08/17 08:47:49;;;;;;;1999.90;999.90;;;;;;;;;;4995103;28;20231;-64
2022/08/17 08:50:39;;;;;;;1999.90;999.90;;;;;;;;;;4984496;28;20217;-63
2022/08/17 08:53:30;;;;;;;1999.90;999.90;;;;;;;;;;4965122;28;20230;-65
2022/08/17 08:56:21;;;;;;;1999.90;999.90;;;;;;;;;;4982630;28;20227;-65
2022/08/17 08:59:10;;;;;;;1999.90;999.90;;;;;;;;;;4979087;28;20312;-66
2022/08/17 09:02:02;;;;;;;1999.90;999.90;;;;;;;;;;4980500;28;20199;-65
2022/08/17 09:04:54;;;;;;;1999.90;999.90;;;;;;;;;;4975357;28;20203;-66
2022/08/17 09:07:46;;;;;;;1999.90;999.90;;;;;;;;;;4972260;28;20596;-66
2022/08/17 09:10:34;;;;;;;1999.90;999.90;;;;;;;;;;4975120;28;20483;-65
2022/08/17 09:13:23;;;;;;;1999.90;999.90;;;;;;;;;;4973198;28;20826;-65
2022/08/17 09:16:14;;;;;;;1999.90;999.90;;;;;;;;;;4978653;28;20593;-65
2022/08/17 09:19:03;;;;;;;1999.90;999.90;;;;;;;;;;4974847;28;20239;-66
2022/08/17 09:21:52;;;;;;;1999.90;999.90;;;;;;;;;;4983312;28;20782;-65
2022/08/17 09:24:40;;;;;;;1999.90;999.90;;;;;;;;;;4978596;28;20202;-64
2022/08/17 09:27:27;;;;;;;1999.90;999.90;;;;;;;;;;4973486;28;20627;-65
2022/08/17 09:30:14;;;;;;;1999.90;999.90;;;;;;;;;;4984386;28;20268;-64
2022/08/17 09:33:01;;;;;;;1999.90;999.90;;;;;;;;;;4971949;28;20209;-65
2022/08/17 09:35:49;;;;;;;1999.90;999.90;;;;;;;;;;4973436;28;20252;-64
2022/08/17 09:38:40;;;;;;;1999.90;999.90;;;;;;;;;;4969753;28;20259;-65
2022/08/17 09:41:28;;;;;;;1999.90;999.90;;;;;;;;;;4982933;28;20216;-65
2022/08/17 09:44:18;;;;;;;1999.90;999.90;;;;;;;;;;4974822;28;20212;-65
2022/08/17 09:47:08;;;;;;;1999.90;999.90;;;;;;;;;;4973375;28;20330;-65
2022/08/17 09:49:57;;;;;;;1999.90;999.90;;;;;;;;;;4974238;28;20277;-65
2022/08/17 09:52:42;;;;;;;1999.90;999.90;;;;;;;;;;4976167;28;20596;-65
2022/08/17 09:55:35;;;;;;;1999.90;999.90;;;;;;;;;;4988414;28;20301;-66
2022/08/17 09:58:24;;;;;;;1999.90;999.90;;;;;;;;;;4990742;28;20246;-66
2022/08/17 10:01:15;;;;;;;1999.90;999.90;;;;;;;;;;4973374;28;20343;-66
2022/08/17 10:04:10;;;;;;;1999.90;999.90;;;;;;;;;;4971547;28;20207;-66
2022/08/17 10:06:57;;;;;;;1999.90;999.90;;;;;;;;;;4973987;28;20223;-66
2022/08/17 10:09:48;;;;;;;1999.90;999.90;;;;;;;;;;4984105;28;20435;-65
2022/08/17 10:12:35;;;;;;;1999.90;999.90;;;;;;;;;;4981790;28;20369;-66
2022/08/17 10:15:30;;;;;;;1999.90;999.90;;;;;;;;;;4961390;28;20270;-66
2022/08/17 10:18:22;;;;;;;1999.90;999.90;;;;;;;;;;4959673;28;20762;-66
2022/08/17 10:27:19;;;;;;;1999.90;999.90;;;;;;;;;;4954497;29;20236;-65
2022/08/17 10:30:05;;;;;;;1999.90;999.90;;;;;;;;;;4954474;29;20213;-65
2022/08/17 10:32:53;;;;;;;1999.90;999.90;;;;;;;;;;4954544;29;20289;-65
2022/08/17 10:35:44;;;;;;;1999.90;999.90;;;;;;;;;;4954490;29;20209;-66
2022/08/17 10:38:44;;;;;;;1999.90;999.90;;;;;;;;;;4954084;29;20719;-65
2022/08/17 10:41:32;;;;;;;1999.90;999.90;;;;;;;;;;4954324;29;20283;-65
2022/08/17 10:44:23;;;;;;;1999.90;999.90;;;;;;;;;;4954374;29;20208;-65
2022/08/17 10:47:10;;;;;;;1999.90;999.90;;;;;;;;;;4954547;29;20205;-65
2022/08/17 10:49:56;;;;;;;1999.90;999.90;;;;;;;;;;4954029;29;20232;-65
2022/08/17 10:52:47;;;;;;;1999.90;999.90;;;;;;;;;;4954288;29;20304;-65
2022/08/17 10:55:33;;;;;;;1999.90;999.90;;;;;;;;;;4953858;29;20236;-65
2022/08/17 10:58:20;;;;;;;1999.90;999.90;;;;;;;;;;4954044;29;20288;-65
2022/08/17 11:01:11;;;;;;;1999.90;999.90;;;;;;;;;;4954244;29;20340;-64
2022/08/17 11:03:57;;;;;;;1999.90;999.90;;;;;;;;;;4952959;29;20401;-65
2022/08/17 11:06:46;;;;;;;1999.90;999.90;;;;;;;;;;4953156;28;20205;-65
2022/08/17 11:09:34;;;;;;;1999.90;999.90;;;;;;;;;;4953841;29;20311;-65
2022/08/17 11:12:28;;;;;;;1999.90;999.90;;;;;;;;;;4954290;29;20272;-64
2022/08/17 11:15:18;;;;;;;1999.90;999.90;;;;;;;;;;4953502;29;20731;-65
2022/08/17 11:18:14;;;;;;;1999.90;999.90;;;;;;;;;;4954069;29;20738;-65
2022/08/17 11:21:09;;;;;;;1999.90;999.90;;;;;;;;;;4953960;29;20288;-64
2022/08/17 11:24:10;;;;;;;1999.90;999.90;;;;;;;;;;4953845;29;20209;-65
2022/08/17 11:27:01;;;;;;;1999.90;999.90;;;;;;;;;;4954019;29;20280;-65
2022/08/17 11:29:50;;;;;;;1999.90;999.90;;;;;;;;;;4953911;29;20727;-65
2022/08/17 11:32:39;;;;;;;1999.90;999.90;;;;;;;;;;4953988;29;20213;-65
2022/08/17 11:35:28;;;;;;;1999.90;999.90;;;;;;;;;;4953306;29;20231;-65
2022/08/17 11:38:19;;;;;;;1999.90;999.90;;;;;;;;;;4952390;29;20405;-65
2022/08/17 11:41:09;;;;;;;1999.90;999.90;;;;;;;;;;4954099;29;20217;-65
2022/08/17 11:44:14;;;;;;;1999.90;999.90;;;;;;;;;;4953802;29;20201;-65
2022/08/17 11:54:08;;;;;;;1999.90;999.90;;;;;;;;;;4953328;29;20249;-65
2022/08/17 11:56:53;;;;;;;1999.90;999.90;;;;;;;;;;4953533;29;20805;-65
2022/08/17 11:59:58;;;;;;;1999.90;999.90;;;;;;;;;;4953595;29;20747;-65
2022/08/17 12:02:47;;;;;;;1999.90;999.90;;;;;;;;;;4953396;29;20402;-64
2022/08/17 12:05:32;;;;;;;1999.90;999.90;;;;;;;;;;4953491;29;20386;-65
2022/08/17 12:08:19;;;;;;;1999.90;999.90;;;;;;;;;;4953449;29;20325;-64
2022/08/17 12:11:06;;;;;;;1999.90;999.90;;;;;;;;;;4953469;29;20208;-64
2022/08/17 12:13:54;;;;;;;1999.90;999.90;;;;;;;;;;4953597;29;20220;-64
2022/08/17 12:16:41;;;;;;;1999.90;999.90;;;;;;;;;;4953378;28;20212;-64
2022/08/17 12:19:28;;;;;;;1999.90;999.90;;;;;;;;;;4957055;29;20224;-64
2022/08/17 12:22:16;;;;;;;1999.90;999.90;;;;;;;;;;4956800;29;20208;-64
2022/08/17 12:25:03;;;;;;;1999.90;999.90;;;;;;;;;;4956581;29;20208;-64
2022/08/17 12:27:49;;;;;;;1999.90;999.90;;;;;;;;;;4956666;29;20224;-64
2022/08/17 12:30:35;;;;;;;1999.90;999.90;;;;;;;;;;4956763;29;20256;-66
2022/08/17 12:33:22;;;;;;;1999.90;999.90;;;;;;;;;;4956608;29;20321;-65
2022/08/17 12:36:13;;;;;;;1999.90;999.90;;;;;;;;;;4955622;29;20428;-64
2022/08/17 12:39:02;;;;;;;1999.90;999.90;;;;;;;;;;4956743;29;20731;-64
2022/08/17 12:41:48;;;;;;;1999.90;999.90;;;;;;;;;;4956361;29;20208;-65
2022/08/17 12:44:34;;;;;;;1999.90;999.90;;;;;;;;;;4956348;29;20204;-64
2022/08/17 12:47:19;;;;;;;1999.90;999.90;;;;;;;;;;4956433;29;20212;-64
2022/08/17 12:50:07;;;;;;;1999.90;999.90;;;;;;;;;;4956504;29;20562;-64
2022/08/17 12:52:54;;;;;;;1999.90;999.90;;;;;;;;;;4956422;29;20422;-66
2022/08/17 12:55:39;;;;;;;1999.90;999.90;;;;;;;;;;4956020;29;20235;-64
2022/08/17 12:58:25;;;;;;;1999.90;999.90;;;;;;;;;;4956231;29;20355;-64
2022/08/17 13:01:14;;;;;;;1999.90;999.90;;;;;;;;;;4955268;29;20457;-64
2022/08/17 13:03:59;;;;;;;1999.90;999.90;;;;;;;;;;4956252;29;20200;-65
2022/08/17 13:06:49;;;;;;;1999.90;999.90;;;;;;;;;;4956166;29;20256;-64
2022/08/17 13:09:35;;;;;;;1999.90;999.90;;;;;;;;;;4955877;29;20363;-64
2022/08/17 13:12:26;;;;;;;1999.90;999.90;;;;;;;;;;4956060;29;20305;-66
2022/08/17 13:15:19;;;;;;;1999.90;999.90;;;;;;;;;;4955739;29;20775;-67
2022/08/17 13:18:06;;;;;;;1999.90;999.90;;;;;;;;;;4955825;29;20726;-64
2022/08/17 13:20:53;;;;;;;1999.90;999.90;;;;;;;;;;4955991;29;20212;-65
2022/08/17 13:23:38;;;;;;;1999.90;999.90;;;;;;;;;;4955899;29;20213;-65
2022/08/17 13:26:28;;;;;;;1999.90;999.90;;;;;;;;;;4955556;29;20312;-66
2022/08/17 13:29:19;;;;;;;1999.90;999.90;;;;;;;;;;4954995;28;20228;-66
2022/08/17 13:32:15;;;;;;;1999.90;999.90;;;;;;;;;;4955703;29;20208;-66
2022/08/17 13:35:06;;;;;;;1999.90;999.90;;;;;;;;;;4954251;29;20433;-66
2022/08/17 13:38:01;;;;;;;1999.90;999.90;;;;;;;;;;4955656;29;20221;-66
2022/08/17 13:40:50;;;;;;;1999.90;999.90;;;;;;;;;;4955495;29;20229;-66
2022/08/17 13:43:44;;;;;;;1999.90;999.90;;;;;;;;;;4955443;29;20225;-66
2022/08/17 13:46:31;;;;;;;1999.90;999.90;;;;;;;;;;4955220;29;20193;-66
2022/08/17 13:49:19;;;;;;;1999.90;999.90;;;;;;;;;;4955124;29;20752;-67
2022/08/17 13:52:04;;;;;;;1999.90;999.90;;;;;;;;;;4955282;29;20347;-67
2022/08/17 13:54:50;;;;;;;1999.90;999.90;;;;;;;;;;4954900;29;20224;-66
2022/08/17 13:57:36;;;;;;;1999.90;999.90;;;;;;;;;;4955080;29;20231;-66
2022/08/17 14:00:28;;;;;;;1999.90;999.90;;;;;;;;;;4954196;29;20719;-67
2022/08/17 14:03:14;;;;;;;1999.90;999.90;;;;;;;;;;4954919;29;20287;-66
2022/08/17 14:05:59;;;;;;;1999.90;999.90;;;;;;;;;;4954708;29;20296;-66
2022/08/17 14:08:43;;;;;;;1999.90;999.90;;;;;;;;;;4954788;28;20244;-66
2022/08/17 14:11:28;;;;;;;1999.90;999.90;;;;;;;;;;4954937;29;20328;-66
2022/08/17 14:14:14;;;;;;;1999.90;999.90;;;;;;;;;;4954641;29;20197;-66
2022/08/17 14:17:00;;;;;;;1999.90;999.90;;;;;;;;;;4954608;29;20791;-66
2022/08/17 14:19:45;;;;;;;1999.90;999.90;;;;;;;;;;4954844;29;20208;-66
2022/08/17 14:22:31;;;;;;;1999.90;999.90;;;;;;;;;;4954688;29;20207;-66
2022/08/17 14:25:18;;;;;;;1999.90;999.90;;;;;;;;;;4954572;29;20205;-66
2022/08/17 14:28:04;;;;;;;1999.90;999.90;;;;;;;;;;4954586;29;20256;-66
2022/08/17 14:30:50;;;;;;;1999.90;999.90;;;;;;;;;;4954543;29;20201;-66
2022/08/17 14:33:37;;;;;;;1999.90;999.90;;;;;;;;;;4954134;29;20574;-66
2022/08/17 14:36:22;;;;;;;1999.90;999.90;;;;;;;;;;4953927;29;20311;-66
2022/08/17 14:39:07;;;;;;;1999.90;999.90;;;;;;;;;;4954334;29;20240;-66
2022/08/17 14:41:52;;;;;;;1999.90;999.90;;;;;;;;;;4954497;28;20201;-66
2022/08/17 14:44:38;;;;;;;1999.90;999.90;;;;;;;;;;4954086;29;20568;-66
2022/08/17 14:47:23;;;;;;;1999.90;999.90;;;;;;;;;;4954182;29;20208;-66
2022/08/17 14:50:11;;;;;;;1999.90;999.90;;;;;;;;;;4954514;29;20590;-66
2022/08/17 14:52:57;;;;;;;1999.90;999.90;;;;;;;;;;4954263;29;20257;-66
2022/08/17 14:55:44;;;;;;;1999.90;999.90;;;;;;;;;;4953589;29;20220;-66
2022/08/17 14:58:29;;;;;;;1999.90;999.90;;;;;;;;;;4953760;29;20903;-66
2022/08/17 15:01:14;;;;;;;1999.90;999.90;;;;;;;;;;4954450;29;20210;-66
2022/08/17 15:03:59;;;;;;;1999.90;999.90;;;;;;;;;;4953778;29;20204;-66
2022/08/17 15:06:47;;;;;;;1999.90;999.90;;;;;;;;;;4954275;29;20212;-66
2022/08/17 15:09:32;;;;;;;1999.90;999.90;;;;;;;;;;4954009;29;20236;-66
2022/08/17 15:12:18;;;;;;;1999.90;999.90;;;;;;;;;;4954028;29;20213;-66
2022/08/17 15:15:04;;;;;;;1999.90;999.90;;;;;;;;;;4953880;29;20232;-66
2022/08/17 15:17:50;;;;;;;1999.90;999.90;;;;;;;;;;4953853;29;20245;-66
2022/08/17 15:20:35;;;;;;;1999.90;999.90;;;;;;;;;;4953699;29;20204;-66
2022/08/17 15:23:22;;;;;;;1999.90;999.90;;;;;;;;;;4954160;29;20275;-66
2022/08/17 15:26:08;;;;;;;1999.90;999.90;;;;;;;;;;4953638;29;20213;-67
2022/08/17 15:28:56;;;;;;;1999.90;999.90;;;;;;;;;;4957686;28;20236;-66
2022/08/17 15:31:40;;;;;;;1999.90;999.90;;;;;;;;;;4969723;28;20216;-66
2022/08/17 15:34:25;;;;;;;1999.90;999.90;;;;;;;;;;4973384;28;21091;-66
2022/08/17 15:37:10;;;;;;;1999.90;999.90;;;;;;;;;;4977366;28;20730;-66
2022/08/17 15:39:57;;;;;;;1999.90;999.90;;;;;;;;;;4976051;28;20212;-66
2022/08/17 15:42:42;;;;;;;1999.90;999.90;;;;;;;;;;4973612;28;20215;-64
2022/08/17 15:45:29;;;;;;;1999.90;999.90;;;;;;;;;;4976611;28;20320;-66
2022/08/17 15:48:14;;;;;;;1999.90;999.90;;;;;;;;;;4992023;28;20321;-67
2022/08/17 15:51:00;;;;;;;1999.90;999.90;;;;;;;;;;4979151;28;20337;-66
2022/08/17 15:53:46;;;;;;;1999.90;999.90;;;;;;;;;;4972943;28;20214;-66
2022/08/17 15:56:33;;;;;;;1999.90;999.90;;;;;;;;;;4975155;28;20235;-66
2022/08/17 15:59:18;;;;;;;1999.90;999.90;;;;;;;;;;4979106;28;20433;-67
2022/08/17 16:02:11;;;;;;;1999.90;999.90;;;;;;;;;;4983033;28;20706;-66